sensor_id;sensor_type;location;lat;lon;timestamp;pressure;altitude;pressure_sealevel;temperature;humidity
13387;BME280;6763;48.524;9.044;2023-01-27T00:00:47;97973.34;;;4.45;52.72
13387;BME280;6763;48.524;9.044;2023-01-27T00:03:13;97969.06;;;4.44;53.09
13387;BME280;6763;48.524;9.044;2023-01-27T00:05:39;97969.06;;;4.44;53.20
13387;BME280;6763;48.524;9.044;2023-01-27T00:08:04;97964.81;;;4.45;53.00
13387;BME280;6763;48.524;9.044;2023-01-27T00:10:29;97965.66;;;4.45;53.11
13387;BME280;6763;48.524;9.044;2023-01-27T00:12:55;97962.25;;;4.43;52.89
13387;BME280;6763;48.524;9.044;2023-01-27T00:15:39;97966.50;;;4.44;52.97
13387;BME280;6763;48.524;9.044;2023-01-27T00:18:05;97961.38;;;4.44;53.08
13387;BME280;6763;48.524;9.044;2023-01-27T00:20:31;97963.06;;;4.42;52.90
13387;BME280;6763;48.524;9.044;2023-01-27T00:23:19;97968.13;;;4.36;53.35
13387;BME280;6763;48.524;9.044;2023-01-27T00:26:06;97954.50;;;4.35;53.39
13387;BME280;6763;48.524;9.044;2023-01-27T00:28:33;97957.06;;;4.35;52.85
13387;BME280;6763;48.524;9.044;2023-01-27T00:30:59;97945.09;;;4.34;53.32
13387;BME280;6763;48.524;9.044;2023-01-27T00:33:25;97949.38;;;4.37;53.41
13387;BME280;6763;48.524;9.044;2023-01-27T00:36:03;97955.34;;;4.39;53.09
13387;BME280;6763;48.524;9.044;2023-01-27T00:38:30;97957.09;;;4.42;53.42
13387;BME280;6763;48.524;9.044;2023-01-27T00:40:56;97955.38;;;4.41;53.37
13387;BME280;6763;48.524;9.044;2023-01-27T00:43:47;97963.91;;;4.38;53.32
13387;BME280;6763;48.524;9.044;2023-01-27T00:46:13;97957.06;;;4.38;53.40
13387;BME280;6763;48.524;9.044;2023-01-27T00:48:39;97947.69;;;4.41;53.12
13387;BME280;6763;48.524;9.044;2023-01-27T00:51:04;97957.13;;;4.43;53.36
13387;BME280;6763;48.524;9.044;2023-01-27T00:53:30;97957.13;;;4.43;53.40
13387;BME280;6763;48.524;9.044;2023-01-27T00:55:55;97959.69;;;4.43;53.35
13387;BME280;6763;48.524;9.044;2023-01-27T00:58:25;97968.22;;;4.45;52.97
13387;BME280;6763;48.524;9.044;2023-01-27T01:00:55;97953.72;;;4.47;53.37
13387;BME280;6763;48.524;9.044;2023-01-27T01:03:21;97957.97;;;4.45;53.30
13387;BME280;6763;48.524;9.044;2023-01-27T01:05:47;97968.22;;;4.47;53.23
13387;BME280;6763;48.524;9.044;2023-01-27T01:08:13;97961.41;;;4.46;53.18
13387;BME280;6763;48.524;9.044;2023-01-27T01:10:38;97964.81;;;4.45;53.42
13387;BME280;6763;48.524;9.044;2023-01-27T01:13:05;97959.72;;;4.46;53.05
13387;BME280;6763;48.524;9.044;2023-01-27T01:15:37;97968.28;;;4.51;53.22
13387;BME280;6763;48.524;9.044;2023-01-27T01:18:03;97965.72;;;4.51;52.93
13387;BME280;6763;48.524;9.044;2023-01-27T01:20:29;97962.31;;;4.52;53.24
13387;BME280;6763;48.524;9.044;2023-01-27T01:22:54;97969.13;;;4.50;53.20
13387;BME280;6763;48.524;9.044;2023-01-27T01:25:21;97976.81;;;4.50;53.06
13387;BME280;6763;48.524;9.044;2023-01-27T01:27:46;97966.56;;;4.49;53.35
13387;BME280;6763;48.524;9.044;2023-01-27T01:30:12;97972.53;;;4.49;53.06
13387;BME280;6763;48.524;9.044;2023-01-27T01:32:37;97969.09;;;4.46;53.17
13387;BME280;6763;48.524;9.044;2023-01-27T01:35:02;97977.59;;;4.42;52.96
13387;BME280;6763;48.524;9.044;2023-01-27T01:37:28;97967.31;;;4.37;53.23
13387;BME280;6763;48.524;9.044;2023-01-27T01:39:53;97967.31;;;4.37;53.30
13387;BME280;6763;48.524;9.044;2023-01-27T01:42:18;97964.75;;;4.37;53.44
13387;BME280;6763;48.524;9.044;2023-01-27T01:44:44;97969.00;;;4.36;53.26
13387;BME280;6763;48.524;9.044;2023-01-27T01:47:18;97969.03;;;4.38;53.40
13387;BME280;6763;48.524;9.044;2023-01-27T01:49:45;97963.00;;;4.36;53.52
13387;BME280;6763;48.524;9.044;2023-01-27T01:52:16;97963.88;;;4.35;53.28
13387;BME280;6763;48.524;9.044;2023-01-27T01:54:46;97961.31;;;4.36;53.49
13387;BME280;6763;48.524;9.044;2023-01-27T01:57:27;97961.31;;;4.36;53.58
13387;BME280;6763;48.524;9.044;2023-01-27T02:00:01;97956.19;;;4.36;53.50
13387;BME280;6763;48.524;9.044;2023-01-27T02:02:28;97956.22;;;4.38;53.55
13387;BME280;6763;48.524;9.044;2023-01-27T02:05:00;97954.53;;;4.40;53.36
13387;BME280;6763;48.524;9.044;2023-01-27T02:07:33;97950.25;;;4.41;53.45
13387;BME280;6763;48.524;9.044;2023-01-27T02:10:00;97947.66;;;4.39;53.52
13387;BME280;6763;48.524;9.044;2023-01-27T02:12:26;97949.41;;;4.40;53.44
13387;BME280;6763;48.524;9.044;2023-01-27T02:14:52;97942.56;;;4.41;53.35
13387;BME280;6763;48.524;9.044;2023-01-27T02:17:18;97949.44;;;4.43;53.53
13387;BME280;6763;48.524;9.044;2023-01-27T02:22:26;97937.44;;;4.41;53.33
13387;BME280;6763;48.524;9.044;2023-01-27T02:25:00;97935.69;;;4.36;53.51
13387;BME280;6763;48.524;9.044;2023-01-27T02:27:29;97939.13;;;4.35;53.61
13387;BME280;6763;48.524;9.044;2023-01-27T02:29:54;97931.38;;;4.31;53.35
13387;BME280;6763;48.524;9.044;2023-01-27T02:32:24;97939.94;;;4.30;53.43
13387;BME280;6763;48.524;9.044;2023-01-27T02:34:51;97939.91;;;4.28;53.69
13387;BME280;6763;48.524;9.044;2023-01-27T02:37:17;97940.72;;;4.26;53.47
13387;BME280;6763;48.524;9.044;2023-01-27T02:39:44;97939.91;;;4.28;53.56
13387;BME280;6763;48.524;9.044;2023-01-27T02:42:13;97937.41;;;4.33;53.90
13387;BME280;6763;48.524;9.044;2023-01-27T02:44:39;97934.00;;;4.38;53.66
13387;BME280;6763;48.524;9.044;2023-01-27T02:47:04;97928.91;;;4.42;53.70
13387;BME280;6763;48.524;9.044;2023-01-27T02:49:30;97934.06;;;4.43;53.67
13387;BME280;6763;48.524;9.044;2023-01-27T02:51:55;97928.06;;;4.44;53.48
13387;BME280;6763;48.524;9.044;2023-01-27T02:54:22;97936.66;;;4.46;53.60
13387;BME280;6763;48.524;9.044;2023-01-27T02:56:48;97934.09;;;4.46;53.61
13387;BME280;6763;48.524;9.044;2023-01-27T02:59:13;97930.66;;;4.46;53.62
13387;BME280;6763;48.524;9.044;2023-01-27T03:01:38;97940.84;;;4.41;53.30
13387;BME280;6763;48.524;9.044;2023-01-27T03:04:04;97938.25;;;4.36;53.43
13387;BME280;6763;48.524;9.044;2023-01-27T03:06:30;97934.84;;;4.34;53.58
13387;BME280;6763;48.524;9.044;2023-01-27T03:08:55;97937.41;;;4.33;53.70
13387;BME280;6763;48.524;9.044;2023-01-27T03:11:20;97926.28;;;4.34;53.80
13387;BME280;6763;48.524;9.044;2023-01-27T03:14:08;97936.53;;;4.34;54.12
13387;BME280;6763;48.524;9.044;2023-01-27T03:16:34;97940.81;;;4.36;53.68
13387;BME280;6763;48.524;9.044;2023-01-27T03:19:18;97940.81;;;4.35;53.73
13387;BME280;6763;48.524;9.044;2023-01-27T03:21:43;97935.72;;;4.38;53.68
13387;BME280;6763;48.524;9.044;2023-01-27T03:24:09;97931.47;;;4.42;53.79
13387;BME280;6763;48.524;9.044;2023-01-27T03:26:35;97926.38;;;4.45;53.73
13387;BME280;6763;48.524;9.044;2023-01-27T03:29:03;97934.91;;;4.45;53.60
13387;BME280;6763;48.524;9.044;2023-01-27T03:31:46;97934.00;;;4.37;53.52
13387;BME280;6763;48.524;9.044;2023-01-27T03:34:12;97930.56;;;4.36;53.41
13387;BME280;6763;48.524;9.044;2023-01-27T03:36:37;97928.81;;;4.31;53.70
13387;BME280;6763;48.524;9.044;2023-01-27T03:39:21;97935.63;;;4.27;53.71
13387;BME280;6763;48.524;9.044;2023-01-27T03:42:05;97934.75;;;4.24;53.46
13387;BME280;6763;48.524;9.044;2023-01-27T03:44:49;97937.31;;;4.25;54.01
13387;BME280;6763;48.524;9.044;2023-01-27T03:47:33;97935.63;;;4.27;53.76
13387;BME280;6763;48.524;9.044;2023-01-27T03:49:58;97927.94;;;4.27;53.81
13387;BME280;6763;48.524;9.044;2023-01-27T03:52:23;97935.63;;;4.29;53.69
13387;BME280;6763;48.524;9.044;2023-01-27T03:54:49;97936.50;;;4.31;53.77
13387;BME280;6763;48.524;9.044;2023-01-27T03:57:14;97942.53;;;4.34;53.92
13387;BME280;6763;48.524;9.044;2023-01-27T03:59:39;97942.53;;;4.36;53.69
13387;BME280;6763;48.524;9.044;2023-01-27T04:02:05;97938.25;;;4.35;53.44
13387;BME280;6763;48.524;9.044;2023-01-27T04:04:49;97942.50;;;4.30;53.58
13387;BME280;6763;48.524;9.044;2023-01-27T04:07:36;97939.03;;;4.26;53.82
13387;BME280;6763;48.524;9.044;2023-01-27T04:10:03;97941.59;;;4.26;53.71
13387;BME280;6763;48.524;9.044;2023-01-27T04:12:28;97939.03;;;4.26;53.52
13387;BME280;6763;48.524;9.044;2023-01-27T04:14:53;97940.72;;;4.26;53.55
13387;BME280;6763;48.524;9.044;2023-01-27T04:17:19;97939.88;;;4.25;53.67
13387;BME280;6763;48.524;9.044;2023-01-27T04:19:45;97938.13;;;4.21;53.53
13387;BME280;6763;48.524;9.044;2023-01-27T04:22:12;97942.44;;;4.22;53.39
13387;BME280;6763;48.524;9.044;2023-01-27T04:24:38;97939.03;;;4.25;53.45
13387;BME280;6763;48.524;9.044;2023-01-27T04:27:09;97940.72;;;4.26;53.40
13387;BME280;6763;48.524;9.044;2023-01-27T04:29:37;97942.47;;;4.27;53.60
13387;BME280;6763;48.524;9.044;2023-01-27T04:32:05;97939.06;;;4.29;53.43
13387;BME280;6763;48.524;9.044;2023-01-27T04:34:31;97945.91;;;4.30;53.25
13387;BME280;6763;48.524;9.044;2023-01-27T04:36:56;97951.03;;;4.30;53.31
13387;BME280;6763;48.524;9.044;2023-01-27T04:39:22;97951.03;;;4.30;53.08
13387;BME280;6763;48.524;9.044;2023-01-27T04:41:48;97955.34;;;4.33;52.95
13387;BME280;6763;48.524;9.044;2023-01-27T04:44:14;97959.63;;;4.35;53.54
13387;BME280;6763;48.524;9.044;2023-01-27T04:46:39;97959.59;;;4.34;53.30
13387;BME280;6763;48.524;9.044;2023-01-27T04:49:05;97959.63;;;4.35;53.14
13387;BME280;6763;48.524;9.044;2023-01-27T04:51:32;97958.75;;;4.36;53.04
13387;BME280;6763;48.524;9.044;2023-01-27T04:53:58;97955.34;;;4.33;52.91
13387;BME280;6763;48.524;9.044;2023-01-27T04:56:27;97951.03;;;4.32;52.94
13387;BME280;6763;48.524;9.044;2023-01-27T04:58:56;97946.78;;;4.32;52.70
13387;BME280;6763;48.524;9.044;2023-01-27T05:01:22;97948.47;;;4.32;52.44
13387;BME280;6763;48.524;9.044;2023-01-27T05:03:47;97939.94;;;4.31;52.71
13387;BME280;6763;48.524;9.044;2023-01-27T05:06:13;97949.34;;;4.34;52.65
13387;BME280;6763;48.524;9.044;2023-01-27T05:08:38;97941.69;;;4.37;53.06
13387;BME280;6763;48.524;9.044;2023-01-27T05:11:05;97945.97;;;4.39;52.81
13387;BME280;6763;48.524;9.044;2023-01-27T05:13:30;97948.56;;;4.44;52.77
13387;BME280;6763;48.524;9.044;2023-01-27T05:16:25;97944.28;;;4.42;52.02
13387;BME280;6763;48.524;9.044;2023-01-27T05:18:52;97957.13;;;4.43;52.48
13387;BME280;6763;48.524;9.044;2023-01-27T05:21:20;97962.25;;;4.43;52.18
13387;BME280;6763;48.524;9.044;2023-01-27T05:23:46;97960.47;;;4.39;52.11
13387;BME280;6763;48.524;9.044;2023-01-27T05:26:14;97954.53;;;4.40;52.17
13387;BME280;6763;48.524;9.044;2023-01-27T05:28:42;97957.94;;;4.41;52.14
13387;BME280;6763;48.524;9.044;2023-01-27T05:31:19;97953.66;;;4.41;51.71
13387;BME280;6763;48.524;9.044;2023-01-27T05:33:47;97957.94;;;4.41;52.42
13387;BME280;6763;48.524;9.044;2023-01-27T05:36:14;97962.25;;;4.43;52.07
13387;BME280;6763;48.524;9.044;2023-01-27T05:38:40;97962.25;;;4.43;52.12
13387;BME280;6763;48.524;9.044;2023-01-27T05:41:08;97969.06;;;4.43;52.05
13387;BME280;6763;48.524;9.044;2023-01-27T05:43:35;97965.63;;;4.44;51.90
13387;BME280;6763;48.524;9.044;2023-01-27T05:48:31;97978.41;;;4.39;51.77
13387;BME280;6763;48.524;9.044;2023-01-27T05:50:57;97983.53;;;4.39;51.99
13387;BME280;6763;48.524;9.044;2023-01-27T05:53:23;97977.59;;;4.42;52.05
13387;BME280;6763;48.524;9.044;2023-01-27T05:55:50;97983.56;;;4.42;52.08
13387;BME280;6763;48.524;9.044;2023-01-27T05:58:15;97983.59;;;4.45;51.90
13387;BME280;6763;48.524;9.044;2023-01-27T06:00:41;97983.59;;;4.45;51.92
13387;BME280;6763;48.524;9.044;2023-01-27T06:03:06;97983.59;;;4.45;51.89
13387;BME280;6763;48.524;9.044;2023-01-27T06:05:32;97975.91;;;4.45;51.96
13387;BME280;6763;48.524;9.044;2023-01-27T06:07:57;97980.22;;;4.46;51.92
13387;BME280;6763;48.524;9.044;2023-01-27T06:10:22;97981.03;;;4.47;52.00
13387;BME280;6763;48.524;9.044;2023-01-27T06:12:48;97986.16;;;4.45;52.13
13387;BME280;6763;48.524;9.044;2023-01-27T06:15:13;97985.34;;;4.46;52.07
13387;BME280;6763;48.524;9.044;2023-01-27T06:17:38;97989.59;;;4.47;52.04
13387;BME280;6763;48.524;9.044;2023-01-27T06:20:04;97993.88;;;4.50;51.79
13387;BME280;6763;48.524;9.044;2023-01-27T06:22:29;97995.59;;;4.49;52.07
13387;BME280;6763;48.524;9.044;2023-01-27T06:24:55;97988.75;;;4.50;51.88
13387;BME280;6763;48.524;9.044;2023-01-27T06:27:20;97991.31;;;4.50;51.87
13387;BME280;6763;48.524;9.044;2023-01-27T06:29:45;98001.56;;;4.50;51.70
13387;BME280;6763;48.524;9.044;2023-01-27T06:32:11;97992.19;;;4.50;51.77
13387;BME280;6763;48.524;9.044;2023-01-27T06:34:36;97992.19;;;4.49;51.37
13387;BME280;6763;48.524;9.044;2023-01-27T06:37:01;98000.72;;;4.48;51.50
13387;BME280;6763;48.524;9.044;2023-01-27T06:39:26;97990.47;;;4.48;51.44
13387;BME280;6763;48.524;9.044;2023-01-27T06:41:52;97995.59;;;4.49;51.55
13387;BME280;6763;48.524;9.044;2023-01-27T06:44:17;97997.31;;;4.50;51.57
13387;BME280;6763;48.524;9.044;2023-01-27T06:46:42;97999.88;;;4.52;51.64
13387;BME280;6763;48.524;9.044;2023-01-27T06:49:08;98001.59;;;4.53;51.53
13387;BME280;6763;48.524;9.044;2023-01-27T06:51:33;98004.16;;;4.54;51.57
13387;BME280;6763;48.524;9.044;2023-01-27T06:53:58;98005.03;;;4.55;51.18
13387;BME280;6763;48.524;9.044;2023-01-27T06:56:24;98005.03;;;4.55;51.26
13387;BME280;6763;48.524;9.044;2023-01-27T06:58:49;98010.16;;;4.53;51.15
13387;BME280;6763;48.524;9.044;2023-01-27T07:01:14;98010.16;;;4.53;51.46
13387;BME280;6763;48.524;9.044;2023-01-27T07:03:39;98014.41;;;4.54;51.00
13387;BME280;6763;48.524;9.044;2023-01-27T07:06:05;98022.94;;;4.52;50.94
13387;BME280;6763;48.524;9.044;2023-01-27T07:08:30;98032.31;;;4.50;51.26
13387;BME280;6763;48.524;9.044;2023-01-27T07:10:56;98040.88;;;4.49;51.13
13387;BME280;6763;48.524;9.044;2023-01-27T07:13:21;98039.16;;;4.48;51.14
13387;BME280;6763;48.524;9.044;2023-01-27T07:15:46;98043.44;;;4.49;51.20
13387;BME280;6763;48.524;9.044;2023-01-27T07:18:17;98049.41;;;4.49;50.84
13387;BME280;6763;48.524;9.044;2023-01-27T07:20:43;98046.84;;;4.46;51.11
13387;BME280;6763;48.524;9.044;2023-01-27T07:23:09;98052.78;;;4.47;51.23
13387;BME280;6763;48.524;9.044;2023-01-27T07:25:34;98055.34;;;4.47;51.35
13387;BME280;6763;48.524;9.044;2023-01-27T07:28:00;98056.22;;;4.46;51.73
13387;BME280;6763;48.524;9.044;2023-01-27T07:30:27;98065.59;;;4.47;51.44
13387;BME280;6763;48.524;9.044;2023-01-27T07:32:52;98056.22;;;4.47;51.67
13387;BME280;6763;48.524;9.044;2023-01-27T07:35:20;98067.34;;;4.49;51.20
13387;BME280;6763;48.524;9.044;2023-01-27T07:37:45;98067.38;;;4.51;51.32
13387;BME280;6763;48.524;9.044;2023-01-27T07:40:11;98067.38;;;4.52;51.43
13387;BME280;6763;48.524;9.044;2023-01-27T07:42:38;98070.84;;;4.56;51.22
13387;BME280;6763;48.524;9.044;2023-01-27T07:45:03;98067.41;;;4.57;51.18
13387;BME280;6763;48.524;9.044;2023-01-27T07:47:29;98059.72;;;4.57;51.02
13387;BME280;6763;48.524;9.044;2023-01-27T07:49:54;98066.59;;;4.58;50.92
13387;BME280;6763;48.524;9.044;2023-01-27T07:52:19;98068.31;;;4.59;51.32
13387;BME280;6763;48.524;9.044;2023-01-27T07:54:45;98068.31;;;4.59;51.19
13387;BME280;6763;48.524;9.044;2023-01-27T07:57:10;98074.31;;;4.61;51.15
13387;BME280;6763;48.524;9.044;2023-01-27T07:59:35;98070.06;;;4.66;51.21
13387;BME280;6763;48.524;9.044;2023-01-27T08:02:01;98072.66;;;4.70;51.12
13387;BME280;6763;48.524;9.044;2023-01-27T08:04:26;98067.56;;;4.73;51.33
13387;BME280;6763;48.524;9.044;2023-01-27T08:06:51;98082.16;;;4.79;50.88
13387;BME280;6763;48.524;9.044;2023-01-27T08:09:17;98083.88;;;4.81;51.00
13387;BME280;6763;48.524;9.044;2023-01-27T08:11:42;98081.34;;;4.84;50.70
13387;BME280;6763;48.524;9.044;2023-01-27T08:14:07;98092.47;;;4.86;50.63
13387;BME280;6763;48.524;9.044;2023-01-27T08:16:33;98093.38;;;4.91;50.92
13387;BME280;6763;48.524;9.044;2023-01-27T08:18:58;98081.41;;;4.92;50.52
13387;BME280;6763;48.524;9.044;2023-01-27T08:21:23;98080.56;;;4.91;50.43
13387;BME280;6763;48.524;9.044;2023-01-27T08:23:50;98089.13;;;4.92;50.77
13387;BME280;6763;48.524;9.044;2023-01-27T08:26:17;98089.97;;;4.94;50.35
13387;BME280;6763;48.524;9.044;2023-01-27T08:28:42;98091.69;;;4.96;50.23
13387;BME280;6763;48.524;9.044;2023-01-27T08:31:10;98088.34;;;5.00;50.36
13387;BME280;6763;48.524;9.044;2023-01-27T08:33:36;98099.44;;;5.01;50.12
13387;BME280;6763;48.524;9.044;2023-01-27T08:36:11;98100.31;;;5.06;50.04
13387;BME280;6763;48.524;9.044;2023-01-27T08:38:37;98085.84;;;5.13;50.06
13387;BME280;6763;48.524;9.044;2023-01-27T08:41:04;98081.59;;;5.19;49.86
13387;BME280;6763;48.524;9.044;2023-01-27T08:43:30;98091.94;;;5.24;49.77
13387;BME280;6763;48.524;9.044;2023-01-27T08:45:56;98094.50;;;5.25;49.76
13387;BME280;6763;48.524;9.044;2023-01-27T08:48:22;98111.66;;;5.31;49.65
13387;BME280;6763;48.524;9.044;2023-01-27T08:50:47;98112.47;;;5.30;49.05
13387;BME280;6763;48.524;9.044;2023-01-27T08:53:14;98112.47;;;5.28;49.32
13387;BME280;6763;48.524;9.044;2023-01-27T08:55:39;98117.63;;;5.28;49.08
13387;BME280;6763;48.524;9.044;2023-01-27T08:58:05;98112.47;;;5.28;48.77
13387;BME280;6763;48.524;9.044;2023-01-27T09:00:30;98115.06;;;5.28;49.24
13387;BME280;6763;48.524;9.044;2023-01-27T09:02:55;98104.75;;;5.27;48.86
13387;BME280;6763;48.524;9.044;2023-01-27T09:05:21;98112.47;;;5.24;49.14
13387;BME280;6763;48.524;9.044;2023-01-27T09:07:46;98109.88;;;5.25;48.91
13387;BME280;6763;48.524;9.044;2023-01-27T09:10:12;98112.47;;;5.24;49.05
13387;BME280;6763;48.524;9.044;2023-01-27T09:12:39;98111.59;;;5.23;48.94
13387;BME280;6763;48.524;9.044;2023-01-27T09:15:04;98109.03;;;5.23;48.65
13387;BME280;6763;48.524;9.044;2023-01-27T09:17:30;98106.47;;;5.25;48.74
13387;BME280;6763;48.524;9.044;2023-01-27T09:19:55;98105.59;;;5.24;48.87
13387;BME280;6763;48.524;9.044;2023-01-27T09:22:21;98103.88;;;5.25;48.46
13387;BME280;6763;48.524;9.044;2023-01-27T09:24:46;98097.94;;;5.26;49.00
13387;BME280;6763;48.524;9.044;2023-01-27T09:27:11;98100.53;;;5.29;48.72
13387;BME280;6763;48.524;9.044;2023-01-27T09:29:37;98104.81;;;5.33;48.85
13387;BME280;6763;48.524;9.044;2023-01-27T09:32:03;98097.97;;;5.33;48.82
13387;BME280;6763;48.524;9.044;2023-01-27T09:34:29;98099.72;;;5.39;48.70
13387;BME280;6763;48.524;9.044;2023-01-27T09:36:58;98102.31;;;5.45;48.54
13387;BME280;6763;48.524;9.044;2023-01-27T09:39:25;98098.06;;;5.47;48.23
13387;BME280;6763;48.524;9.044;2023-01-27T09:45:13;98107.50;;;5.49;48.17
13387;BME280;6763;48.524;9.044;2023-01-27T09:51:17;98094.63;;;5.42;48.07
13387;BME280;6763;48.524;9.044;2023-01-27T09:54:07;98104.03;;;5.46;47.74
13387;BME280;6763;48.524;9.044;2023-01-27T09:59:15;98098.84;;;5.40;47.75
13387;BME280;6763;48.524;9.044;2023-01-27T10:02:09;98104.88;;;5.42;47.96
13387;BME280;6763;48.524;9.044;2023-01-27T10:05:05;98109.19;;;5.46;47.76
13387;BME280;6763;48.524;9.044;2023-01-27T10:07:45;98102.34;;;5.46;47.34
13387;BME280;6763;48.524;9.044;2023-01-27T10:16:04;98116.06;;;5.51;47.12
13387;BME280;6763;48.524;9.044;2023-01-27T10:26:20;98120.28;;;5.43;47.78
13387;BME280;6763;48.524;9.044;2023-01-27T10:28:58;98127.97;;;5.39;46.79
13387;BME280;6763;48.524;9.044;2023-01-27T10:31:25;98133.97;;;5.41;47.47
13387;BME280;6763;48.524;9.044;2023-01-27T10:33:56;98131.41;;;5.39;46.97
13387;BME280;6763;48.524;9.044;2023-01-27T10:44:38;98119.59;;;5.67;46.71
13387;BME280;6763;48.524;9.044;2023-01-27T10:49:48;98129.03;;;5.74;46.58
13387;BME280;6763;48.524;9.044;2023-01-27T10:52:19;98123.03;;;5.72;46.20
13387;BME280;6763;48.524;9.044;2023-01-27T10:54:58;98130.75;;;5.72;46.30
13387;BME280;6763;48.524;9.044;2023-01-27T11:00:02;98124.88;;;5.88;46.08
13387;BME280;6763;48.524;9.044;2023-01-27T11:02:57;98120.63;;;5.93;45.75
13387;BME280;6763;48.524;9.044;2023-01-27T11:05:30;98132.63;;;5.96;45.72
13387;BME280;6763;48.524;9.044;2023-01-27T11:08:09;98126.63;;;5.94;45.89
13387;BME280;6763;48.524;9.044;2023-01-27T11:10:40;98124.91;;;5.91;45.65
13387;BME280;6763;48.524;9.044;2023-01-27T11:13:31;98124.06;;;5.94;45.67
13387;BME280;6763;48.524;9.044;2023-01-27T11:15:58;98125.78;;;5.96;45.73
13387;BME280;6763;48.524;9.044;2023-01-27T11:18:26;98118.94;;;5.98;45.31
13387;BME280;6763;48.524;9.044;2023-01-27T11:21:08;98124.94;;;6.00;45.34
13387;BME280;6763;48.524;9.044;2023-01-27T11:23:43;98128.34;;;5.98;45.53
13387;BME280;6763;48.524;9.044;2023-01-27T11:26:30;98123.22;;;5.98;45.75
13387;BME280;6763;48.524;9.044;2023-01-27T11:32:14;98120.69;;;6.08;46.28
13387;BME280;6763;48.524;9.044;2023-01-27T11:35:02;98117.28;;;6.11;45.74
13387;BME280;6763;48.524;9.044;2023-01-27T11:37:31;98105.28;;;6.13;46.27
13387;BME280;6763;48.524;9.044;2023-01-27T11:39:58;98115.59;;;6.23;46.23
13387;BME280;6763;48.524;9.044;2023-01-27T11:42:30;98117.34;;;6.32;46.03
13387;BME280;6763;48.524;9.044;2023-01-27T11:44:57;98110.50;;;6.34;45.89
13387;BME280;6763;48.524;9.044;2023-01-27T11:47:33;98100.25;;;6.45;46.07
13387;BME280;6763;48.524;9.044;2023-01-27T11:50:01;98095.13;;;6.55;45.15
13387;BME280;6763;48.524;9.044;2023-01-27T11:52:28;98093.44;;;6.59;45.02
13387;BME280;6763;48.524;9.044;2023-01-27T11:57:42;98094.28;;;6.67;45.19
13387;BME280;6763;48.524;9.044;2023-01-27T12:03:02;98081.41;;;6.59;44.27
13387;BME280;6763;48.524;9.044;2023-01-27T12:05:33;98074.56;;;6.55;44.88
13387;BME280;6763;48.524;9.044;2023-01-27T12:08:03;98081.41;;;6.55;45.06
13387;BME280;6763;48.524;9.044;2023-01-27T12:10:33;98077.13;;;6.57;45.06
13387;BME280;6763;48.524;9.044;2023-01-27T12:13:18;98084.84;;;6.60;45.32
13387;BME280;6763;48.524;9.044;2023-01-27T12:15:52;98085.72;;;6.63;45.20
13387;BME280;6763;48.524;9.044;2023-01-27T12:18:18;98078.88;;;6.64;44.90
13387;BME280;6763;48.524;9.044;2023-01-27T12:21:05;98089.16;;;6.64;44.26
13387;BME280;6763;48.524;9.044;2023-01-27T12:23:51;98081.44;;;6.58;44.71
13387;BME280;6763;48.524;9.044;2023-01-27T12:26:36;98072.84;;;6.50;44.33
13387;BME280;6763;48.524;9.044;2023-01-27T12:29:12;98072.81;;;6.44;44.87
13387;BME280;6763;48.524;9.044;2023-01-27T12:31:45;98068.50;;;6.31;44.90
13387;BME280;6763;48.524;9.044;2023-01-27T12:36:52;98075.31;;;6.16;45.39
13387;BME280;6763;48.524;9.044;2023-01-27T12:39:41;98078.72;;;6.15;45.24
13387;BME280;6763;48.524;9.044;2023-01-27T12:42:37;98074.47;;;6.19;45.39
13387;BME280;6763;48.524;9.044;2023-01-27T12:45:25;98071.03;;;6.20;45.20
13387;BME280;6763;48.524;9.044;2023-01-27T12:47:59;98073.66;;;6.28;45.30
13387;BME280;6763;48.524;9.044;2023-01-27T12:50:28;98071.94;;;6.25;44.90
13387;BME280;6763;48.524;9.044;2023-01-27T12:53:03;98067.63;;;6.19;45.42
13387;BME280;6763;48.524;9.044;2023-01-27T12:55:39;98073.63;;;6.23;45.34
13387;BME280;6763;48.524;9.044;2023-01-27T12:58:05;98073.66;;;6.24;45.61
13387;BME280;6763;48.524;9.044;2023-01-27T13:00:33;98065.06;;;6.25;45.47
13387;BME280;6763;48.524;9.044;2023-01-27T13:03:05;98063.38;;;6.24;45.43
13387;BME280;6763;48.524;9.044;2023-01-27T13:05:36;98077.06;;;6.28;45.39
13387;BME280;6763;48.524;9.044;2023-01-27T13:08:02;98069.38;;;6.31;45.93
13387;BME280;6763;48.524;9.044;2023-01-27T13:10:28;98070.22;;;6.29;45.35
13387;BME280;6763;48.524;9.044;2023-01-27T13:12:55;98081.34;;;6.26;45.73
13387;BME280;6763;48.524;9.044;2023-01-27T13:15:23;98070.25;;;6.30;45.77
13387;BME280;6763;48.524;9.044;2023-01-27T13:17:53;98060.81;;;6.35;45.51
13387;BME280;6763;48.524;9.044;2023-01-27T13:25:31;98068.53;;;6.47;45.37
13387;BME280;6763;48.524;9.044;2023-01-27T13:27:59;98061.69;;;6.49;45.16
13387;BME280;6763;48.524;9.044;2023-01-27T13:30:40;98067.69;;;6.47;45.01
13387;BME280;6763;48.524;9.044;2023-01-27T13:33:23;98067.66;;;6.44;44.91
13387;BME280;6763;48.524;9.044;2023-01-27T13:36:06;98071.13;;;6.46;44.92
13387;BME280;6763;48.524;9.044;2023-01-27T13:38:41;98060.84;;;6.52;45.08
13387;BME280;6763;48.524;9.044;2023-01-27T13:41:21;98067.72;;;6.56;44.89
13387;BME280;6763;48.524;9.044;2023-01-27T13:44:09;98065.13;;;6.51;45.10
13387;BME280;6763;48.524;9.044;2023-01-27T13:46:37;98065.09;;;6.38;45.40
13387;BME280;6763;48.524;9.044;2023-01-27T13:52:18;98081.34;;;6.26;45.65
13387;BME280;6763;48.524;9.044;2023-01-27T13:54:43;98083.03;;;6.22;45.76
13387;BME280;6763;48.524;9.044;2023-01-27T13:57:25;98088.16;;;6.13;45.96
13387;BME280;6763;48.524;9.044;2023-01-27T14:00:09;98093.28;;;6.13;45.79
13387;BME280;6763;48.524;9.044;2023-01-27T14:02:45;98093.28;;;6.15;46.11
13387;BME280;6763;48.524;9.044;2023-01-27T14:05:50;98107.84;;;6.11;45.88
13387;BME280;6763;48.524;9.044;2023-01-27T14:11:31;98106.13;;;6.09;46.36
13387;BME280;6763;48.524;9.044;2023-01-27T14:22:14;98116.44;;;6.13;46.04
13387;BME280;6763;48.524;9.044;2023-01-27T14:24:55;98115.59;;;6.14;46.59
13387;BME280;6763;48.524;9.044;2023-01-27T14:27:34;98113.00;;;6.16;46.47
13387;BME280;6763;48.524;9.044;2023-01-27T14:33:26;98109.56;;;6.15;46.30
13387;BME280;6763;48.524;9.044;2023-01-27T14:38:14;98113.00;;;6.16;46.51
13387;BME280;6763;48.524;9.044;2023-01-27T14:46:45;98122.44;;;6.14;46.44
13387;BME280;6763;48.524;9.044;2023-01-27T14:51:57;98123.28;;;6.13;46.27
13387;BME280;6763;48.524;9.044;2023-01-27T14:57:35;98124.94;;;6.03;46.40
13387;BME280;6763;48.524;9.044;2023-01-27T15:00:29;98116.38;;;6.01;46.37
13387;BME280;6763;48.524;9.044;2023-01-27T15:09:11;98126.69;;;6.06;46.44
13387;BME280;6763;48.524;9.044;2023-01-27T15:20:27;98137.75;;;5.97;46.82